Time;durP1;ratioP1;P1;durP2;ratioP2;P2;SDS_P1;SDS_P2;PMS_P1;PMS_P2;Temp;Humidity;BMP_temperature;BMP_pressure;BME280_temperature;BME280_humidity;BME280_pressure;Samples;Min_cycle;Max_cycle;Signal;HPM_P1;HPM_P2
2022/04/25 00:01:30;;;;;;;18.25;4.72;;;;;;;;;;6298911;22;20202;-58
2022/04/25 00:03:56;;;;;;;10.15;4.32;;;;;;;;;;6297956;22;20019;-57
2022/04/25 00:06:21;;;;;;;12.63;4.78;;;;;;;;;;6298352;22;20024;-56
2022/04/25 00:08:47;;;;;;;11.02;4.47;;;;;;;;;;6298304;22;20065;-58
2022/04/25 00:11:12;;;;;;;10.70;4.82;;;;;;;;;;6298605;22;20220;-58
2022/04/25 00:13:37;;;;;;;15.07;5.18;;;;;;;;;;6297156;22;20038;-58
2022/04/25 00:16:02;;;;;;;15.85;5.45;;;;;;;;;;6298033;22;20038;-57
2022/04/25 00:18:28;;;;;;;9.90;4.90;;;;;;;;;;6296978;22;20035;-56
2022/04/25 00:20:55;;;;;;;14.73;4.80;;;;;;;;;;6299161;22;20011;-57
2022/04/25 00:23:20;;;;;;;16.48;5.85;;;;;;;;;;6296745;22;20020;-58
2022/04/25 00:25:45;;;;;;;14.57;6.55;;;;;;;;;;6299020;22;20050;-58
2022/04/25 00:28:10;;;;;;;17.48;6.47;;;;;;;;;;6297710;22;20011;-57
2022/04/25 00:30:36;;;;;;;14.20;6.35;;;;;;;;;;6297269;22;20055;-57
2022/04/25 00:33:01;;;;;;;20.13;6.28;;;;;;;;;;6297692;22;20015;-58
2022/04/25 00:35:26;;;;;;;19.38;7.30;;;;;;;;;;6298361;22;20012;-56
2022/04/25 00:37:52;;;;;;;17.13;7.53;;;;;;;;;;6298448;22;20015;-58
2022/04/25 00:40:18;;;;;;;13.65;6.78;;;;;;;;;;6298118;22;20015;-55
2022/04/25 00:42:44;;;;;;;27.23;7.70;;;;;;;;;;6297917;22;20011;-57
2022/04/25 00:45:12;;;;;;;21.17;7.20;;;;;;;;;;6299207;22;20022;-58
2022/04/25 00:47:38;;;;;;;12.45;6.07;;;;;;;;;;6296776;22;20012;-57
2022/04/25 00:50:04;;;;;;;14.65;6.28;;;;;;;;;;6304985;22;20215;-57
2022/04/25 00:52:29;;;;;;;17.98;7.03;;;;;;;;;;6328524;22;20633;-56
2022/04/25 00:54:54;;;;;;;13.10;7.30;;;;;;;;;;6302476;22;20011;-56
2022/04/25 00:57:20;;;;;;;14.73;7.82;;;;;;;;;;6328002;22;20014;-56
2022/04/25 00:59:46;;;;;;;22.52;8.77;;;;;;;;;;6329246;22;20011;-57
2022/04/25 01:02:11;;;;;;;11.30;7.18;;;;;;;;;;6329935;22;20444;-57
2022/04/25 01:04:36;;;;;;;17.27;6.97;;;;;;;;;;6328113;22;20007;-57
2022/04/25 01:07:02;;;;;;;28.80;9.27;;;;;;;;;;6329070;22;20027;-56
2022/04/25 01:09:27;;;;;;;17.75;7.47;;;;;;;;;;6328241;22;20006;-58
2022/04/25 01:11:52;;;;;;;17.83;7.70;;;;;;;;;;6328908;22;20041;-58
2022/04/25 01:14:19;;;;;;;17.77;7.57;;;;;;;;;;6327769;22;20007;-55
2022/04/25 01:16:45;;;;;;;17.83;7.28;;;;;;;;;;6328266;22;20011;-58
2022/04/25 01:19:10;;;;;;;16.70;7.35;;;;;;;;;;6329603;22;20034;-58
2022/04/25 01:21:39;;;;;;;21.48;7.95;;;;;;;;;;6326988;22;20021;-58
2022/04/25 01:29:36;;;;;;;21.60;8.10;;;;;;;;;;6327310;22;20026;-58
2022/04/25 01:32:01;;;;;;;14.85;7.55;;;;;;;;;;6330126;22;20011;-57
2022/04/25 01:34:26;;;;;;;16.08;7.30;;;;;;;;;;6326553;22;20006;-56
2022/04/25 01:36:51;;;;;;;20.58;8.35;;;;;;;;;;6328781;22;20011;-57
2022/04/25 01:39:17;;;;;;;18.27;7.15;;;;;;;;;;6329004;22;20022;-54
2022/04/25 01:41:42;;;;;;;16.15;8.65;;;;;;;;;;6329171;22;20018;-55
2022/04/25 01:44:07;;;;;;;16.75;7.20;;;;;;;;;;6327171;22;20007;-58
2022/04/25 01:46:33;;;;;;;18.88;7.63;;;;;;;;;;6329031;22;20018;-57
2022/04/25 01:48:58;;;;;;;15.60;6.53;;;;;;;;;;6327806;22;20513;-57
2022/04/25 01:51:23;;;;;;;10.23;6.53;;;;;;;;;;6328628;22;20156;-55
2022/04/25 01:53:48;;;;;;;20.33;7.72;;;;;;;;;;6327730;22;20060;-58
2022/04/25 01:56:14;;;;;;;17.20;7.43;;;;;;;;;;6328913;22;20014;-56
2022/04/25 01:58:39;;;;;;;15.68;7.53;;;;;;;;;;6327321;22;20144;-56
2022/04/25 02:01:07;;;;;;;19.42;9.88;;;;;;;;;;6329000;22;20007;-58
2022/04/25 02:03:34;;;;;;;16.75;8.02;;;;;;;;;;6327002;22;20010;-58
2022/04/25 02:06:00;;;;;;;16.63;7.68;;;;;;;;;;6328902;22;20058;-57
2022/04/25 02:08:25;;;;;;;20.48;8.40;;;;;;;;;;6325898;22;20166;-56
2022/04/25 02:13:34;;;;;;;13.90;7.70;;;;;;;;;;6328398;22;20022;-56
2022/04/25 02:15:59;;;;;;;23.63;9.13;;;;;;;;;;6328595;22;20007;-57
2022/04/25 02:18:25;;;;;;;16.08;8.02;;;;;;;;;;6327088;22;20082;-57
2022/04/25 02:20:50;;;;;;;22.92;8.88;;;;;;;;;;6329219;22;20026;-58
2022/04/25 02:23:16;;;;;;;26.52;8.55;;;;;;;;;;6325513;22;20046;-58
2022/04/25 02:25:42;;;;;;;25.92;9.23;;;;;;;;;;6328782;22;20015;-58
2022/04/25 02:28:07;;;;;;;14.18;8.68;;;;;;;;;;6326412;22;20105;-56
2022/04/25 02:30:32;;;;;;;21.58;8.93;;;;;;;;;;6328716;22;20011;-58
2022/04/25 02:32:58;;;;;;;18.25;8.10;;;;;;;;;;6326860;22;20035;-57
2022/04/25 02:35:23;;;;;;;18.25;8.52;;;;;;;;;;6328388;22;20807;-57
2022/04/25 02:37:48;;;;;;;18.08;7.93;;;;;;;;;;6327466;22;20035;-57
2022/04/25 02:40:13;;;;;;;17.13;8.70;;;;;;;;;;6328499;22;20189;-58
2022/04/25 02:42:38;;;;;;;23.65;9.95;;;;;;;;;;6327435;22;20026;-56
2022/04/25 02:45:05;;;;;;;18.48;8.45;;;;;;;;;;6328784;22;20018;-57
2022/04/25 02:47:30;;;;;;;18.85;8.70;;;;;;;;;;6317098;22;20018;-56
2022/04/25 02:49:56;;;;;;;24.48;9.23;;;;;;;;;;6323951;22;20045;-57
2022/04/25 02:52:21;;;;;;;24.80;10.23;;;;;;;;;;6324855;22;20292;-57
2022/04/25 02:54:46;;;;;;;26.15;9.05;;;;;;;;;;6325601;22;20003;-56
2022/04/25 02:57:12;;;;;;;17.83;8.48;;;;;;;;;;6324747;22;20102;-55
2022/04/25 02:59:37;;;;;;;25.40;9.73;;;;;;;;;;6322324;22;20695;-55
2022/04/25 03:02:02;;;;;;;19.15;9.10;;;;;;;;;;6325535;22;20019;-57
2022/04/25 03:04:27;;;;;;;20.23;8.75;;;;;;;;;;6321279;22;20007;-57
2022/04/25 03:06:54;;;;;;;25.95;8.88;;;;;;;;;;6325254;22;20026;-55
2022/04/25 03:09:21;;;;;;;17.42;9.07;;;;;;;;;;6321339;22;20015;-57
2022/04/25 03:11:47;;;;;;;20.23;10.75;;;;;;;;;;6325894;22;20025;-56
2022/04/25 03:14:12;;;;;;;22.30;9.70;;;;;;;;;;6325000;22;20007;-58
2022/04/25 03:16:37;;;;;;;16.40;9.15;;;;;;;;;;6326235;22;20021;-58
2022/04/25 03:19:02;;;;;;;25.33;10.23;;;;;;;;;;6327583;22;20543;-56
2022/04/25 03:21:28;;;;;;;19.63;8.43;;;;;;;;;;6325287;22;20360;-57
2022/04/25 03:23:54;;;;;;;18.85;8.75;;;;;;;;;;6326863;22;20018;-56
2022/04/25 03:26:19;;;;;;;19.70;9.10;;;;;;;;;;6324744;22;20019;-56
2022/04/25 03:28:45;;;;;;;24.73;10.50;;;;;;;;;;6327604;22;19999;-56
2022/04/25 03:31:10;;;;;;;25.90;9.45;;;;;;;;;;6324911;22;20154;-55
2022/04/25 03:33:36;;;;;;;18.65;9.75;;;;;;;;;;6327728;22;20041;-55
2022/04/25 03:36:01;;;;;;;16.58;8.98;;;;;;;;;;6325054;22;20015;-57
2022/04/25 03:38:26;;;;;;;12.73;7.68;;;;;;;;;;6326252;22;20021;-54
2022/04/25 03:40:54;;;;;;;19.13;9.25;;;;;;;;;;6325523;22;20752;-56
2022/04/25 03:43:19;;;;;;;22.85;8.65;;;;;;;;;;6325963;22;20022;-56
2022/04/25 03:45:44;;;;;;;15.35;8.43;;;;;;;;;;6325063;22;20022;-55
2022/04/25 03:48:10;;;;;;;17.63;8.70;;;;;;;;;;6318638;22;20030;-56
2022/04/25 03:50:35;;;;;;;23.02;8.77;;;;;;;;;;6325386;22;20018;-54
2022/04/25 03:53:08;;;;;;;16.15;8.57;;;;;;;;;;6325152;22;20018;-53
2022/04/25 03:58:17;;;;;;;27.23;9.23;;;;;;;;;;6328396;22;20089;-52
2022/04/25 04:00:42;;;;;;;17.90;9.32;;;;;;;;;;6327451;22;20021;-57
2022/04/25 04:03:09;;;;;;;16.27;8.45;;;;;;;;;;6329457;22;20014;-56
2022/04/25 04:05:35;;;;;;;18.08;9.10;;;;;;;;;;6328171;22;20077;-57
2022/04/25 04:08:00;;;;;;;25.75;10.63;;;;;;;;;;6328027;22;20011;-57
2022/04/25 04:10:25;;;;;;;16.92;9.45;;;;;;;;;;6328548;22;20029;-56
2022/04/25 04:12:50;;;;;;;15.63;8.10;;;;;;;;;;6300503;22;20010;-55
2022/04/25 04:15:17;;;;;;;20.83;9.63;;;;;;;;;;6328648;22;20023;-56
2022/04/25 04:17:42;;;;;;;16.73;8.48;;;;;;;;;;6330055;22;20030;-58
2022/04/25 04:20:14;;;;;;;17.05;9.15;;;;;;;;;;6329928;22;20015;-56
2022/04/25 04:22:40;;;;;;;21.23;10.27;;;;;;;;;;6329287;22;20018;-58
2022/04/25 04:25:07;;;;;;;14.95;9.75;;;;;;;;;;6298264;22;20015;-58
2022/04/25 04:27:32;;;;;;;19.23;8.73;;;;;;;;;;6329019;22;20075;-57
2022/04/25 04:30:02;;;;;;;27.05;9.65;;;;;;;;;;6328243;22;20014;-58
2022/04/25 04:32:31;;;;;;;18.20;7.93;;;;;;;;;;6329059;22;20018;-58
2022/04/25 04:34:56;;;;;;;21.23;9.63;;;;;;;;;;6329118;22;20011;-57
2022/04/25 04:37:22;;;;;;;19.80;9.23;;;;;;;;;;6300593;22;20044;-58
2022/04/25 04:39:47;;;;;;;24.50;9.68;;;;;;;;;;6327814;22;20014;-58
2022/04/25 04:42:12;;;;;;;24.10;10.52;;;;;;;;;;6329019;22;20003;-57
2022/04/25 04:44:38;;;;;;;17.70;9.95;;;;;;;;;;6327327;22;20013;-56
2022/04/25 04:47:04;;;;;;;14.95;9.23;;;;;;;;;;6301439;22;20694;-57
2022/04/25 04:49:29;;;;;;;20.40;9.18;;;;;;;;;;6328158;22;20460;-55
2022/04/25 04:51:54;;;;;;;18.27;8.88;;;;;;;;;;6328687;22;20023;-58
2022/04/25 04:54:20;;;;;;;22.63;10.50;;;;;;;;;;6327450;22;20455;-57
2022/04/25 04:56:45;;;;;;;20.77;10.00;;;;;;;;;;6327289;22;19999;-57
2022/04/25 04:59:10;;;;;;;23.80;10.52;;;;;;;;;;6327334;22;20088;-57
2022/04/25 05:01:36;;;;;;;25.65;9.75;;;;;;;;;;6329562;22;20120;-57
2022/04/25 05:04:01;;;;;;;27.20;10.93;;;;;;;;;;6327051;22;20011;-56
2022/04/25 05:06:27;;;;;;;23.73;9.32;;;;;;;;;;6328939;22;20015;-57
2022/04/25 05:08:52;;;;;;;18.60;9.02;;;;;;;;;;6300829;22;20034;-56
2022/04/25 05:11:17;;;;;;;28.77;10.57;;;;;;;;;;6329070;22;20022;-57
2022/04/25 05:13:43;;;;;;;16.63;8.73;;;;;;;;;;6300530;22;20011;-57
2022/04/25 05:16:08;;;;;;;28.58;10.48;;;;;;;;;;6329277;22;20082;-56
2022/04/25 05:18:33;;;;;;;16.63;9.15;;;;;;;;;;6327267;22;20011;-57
2022/04/25 05:21:02;;;;;;;18.02;10.50;;;;;;;;;;6329970;22;20007;-56
2022/04/25 05:23:27;;;;;;;19.05;10.05;;;;;;;;;;6299789;22;20007;-55
2022/04/25 05:25:54;;;;;;;23.45;11.13;;;;;;;;;;6329052;22;20097;-56
2022/04/25 05:28:19;;;;;;;17.15;9.45;;;;;;;;;;6327583;22;20509;-57
2022/04/25 05:30:46;;;;;;;23.42;9.63;;;;;;;;;;6329768;22;20053;-58
2022/04/25 05:33:11;;;;;;;20.40;8.55;;;;;;;;;;6327490;22;20014;-55
2022/04/25 05:35:37;;;;;;;22.77;9.38;;;;;;;;;;6329916;22;20003;-56
2022/04/25 05:38:03;;;;;;;29.35;9.77;;;;;;;;;;6328039;22;20476;-56
2022/04/25 05:40:28;;;;;;;23.92;11.48;;;;;;;;;;6327692;22;20094;-56
2022/04/25 05:42:55;;;;;;;24.80;9.70;;;;;;;;;;6328112;22;20018;-56
2022/04/25 05:45:21;;;;;;;22.02;9.98;;;;;;;;;;6328450;22;20018;-57
2022/04/25 05:47:47;;;;;;;21.02;9.32;;;;;;;;;;6328487;22;20030;-56
2022/04/25 05:52:57;;;;;;;29.27;9.93;;;;;;;;;;6329692;22;20087;-57
2022/04/25 05:55:23;;;;;;;25.08;10.27;;;;;;;;;;6326170;22;20030;-57
2022/04/25 05:57:48;;;;;;;15.10;8.88;;;;;;;;;;6301498;22;20033;-57
2022/04/25 06:00:17;;;;;;;20.17;9.52;;;;;;;;;;6328356;22;20019;-57
2022/04/25 06:02:43;;;;;;;21.85;9.18;;;;;;;;;;6328716;22;20007;-57
2022/04/25 06:05:11;;;;;;;24.30;10.95;;;;;;;;;;6327712;22;20568;-56
2022/04/25 06:07:43;;;;;;;17.35;9.20;;;;;;;;;;6328043;22;20011;-56
2022/04/25 06:10:09;;;;;;;20.38;10.15;;;;;;;;;;6326418;22;20026;-55
2022/04/25 06:12:38;;;;;;;21.20;8.48;;;;;;;;;;6328839;22;20007;-57
2022/04/25 06:15:05;;;;;;;21.77;10.02;;;;;;;;;;6327081;22;20022;-58
2022/04/25 06:17:30;;;;;;;15.00;8.60;;;;;;;;;;6328907;22;20015;-57
2022/04/25 06:19:55;;;;;;;22.08;9.35;;;;;;;;;;6328292;22;20057;-57
2022/04/25 06:22:21;;;;;;;22.02;9.45;;;;;;;;;;6328966;22;20015;-55
2022/04/25 06:24:46;;;;;;;20.30;8.10;;;;;;;;;;6326814;22;20036;-55
2022/04/25 06:27:12;;;;;;;20.23;10.43;;;;;;;;;;6329535;22;20056;-56
2022/04/25 06:29:37;;;;;;;25.60;8.40;;;;;;;;;;6327594;22;20874;-56
2022/04/25 06:32:05;;;;;;;17.27;8.07;;;;;;;;;;6328420;22;20003;-57
2022/04/25 06:34:30;;;;;;;20.98;9.10;;;;;;;;;;6325488;22;20011;-56
2022/04/25 06:36:56;;;;;;;18.02;9.10;;;;;;;;;;6328472;22;20039;-57
2022/04/25 06:39:21;;;;;;;17.23;8.68;;;;;;;;;;6325035;22;20770;-56
2022/04/25 06:41:46;;;;;;;13.65;6.65;;;;;;;;;;6329010;22;20003;-57
2022/04/25 06:44:12;;;;;;;10.85;6.43;;;;;;;;;;6297927;22;20015;-57
2022/04/25 06:46:37;;;;;;;21.15;9.60;;;;;;;;;;6328350;22;20614;-55
2022/04/25 06:49:21;;;;;;;20.95;7.90;;;;;;;;;;6296451;22;20022;-56
2022/04/25 06:51:53;;;;;;;16.25;7.63;;;;;;;;;;6326694;22;20210;-58
2022/04/25 06:54:20;;;;;;;15.57;7.00;;;;;;;;;;6323340;22;20026;-55
2022/04/25 06:56:45;;;;;;;12.68;6.72;;;;;;;;;;6324238;22;20017;-57
2022/04/25 06:59:11;;;;;;;13.88;5.40;;;;;;;;;;6328435;22;20034;-56
2022/04/25 07:01:36;;;;;;;18.58;6.57;;;;;;;;;;6330358;22;20011;-60
2022/04/25 07:04:02;;;;;;;10.43;5.85;;;;;;;;;;6326994;22;20026;-54
2022/04/25 07:06:27;;;;;;;15.68;5.70;;;;;;;;;;6329472;22;20026;-55
2022/04/25 07:08:53;;;;;;;10.75;4.53;;;;;;;;;;6329718;22;20015;-55
2022/04/25 07:11:18;;;;;;;18.80;5.90;;;;;;;;;;6329992;22;20882;-57
2022/04/25 07:13:45;;;;;;;19.98;5.88;;;;;;;;;;6327769;22;20156;-58
2022/04/25 07:16:12;;;;;;;13.27;7.18;;;;;;;;;;6295860;22;20018;-58
2022/04/25 07:18:37;;;;;;;17.55;5.13;;;;;;;;;;6329616;22;20063;-58
2022/04/25 07:29:14;;;;;;;19.52;5.15;;;;;;;;;;6330372;22;20566;-59
2022/04/25 07:31:39;;;;;;;25.17;6.78;;;;;;;;;;6329878;22;20011;-58
2022/04/25 07:34:05;;;;;;;24.45;5.20;;;;;;;;;;6329325;22;20014;-58
2022/04/25 07:36:30;;;;;;;12.65;5.35;;;;;;;;;;6320634;22;20049;-58
2022/04/25 07:38:56;;;;;;;8.65;4.70;;;;;;;;;;6330020;22;20014;-55
2022/04/25 07:41:21;;;;;;;9.05;4.35;;;;;;;;;;6298761;22;20025;-55
2022/04/25 07:43:46;;;;;;;7.50;4.63;;;;;;;;;;6323207;22;20233;-58
2022/04/25 07:46:15;;;;;;;24.23;6.80;;;;;;;;;;6295575;22;20102;-58
2022/04/25 07:48:40;;;;;;;30.90;5.00;;;;;;;;;;6325327;22;20018;-57
2022/04/25 07:51:05;;;;;;;14.38;4.80;;;;;;;;;;6325827;22;20026;-57
2022/04/25 07:53:31;;;;;;;10.25;3.65;;;;;;;;;;6323897;22;20041;-57
2022/04/25 07:55:56;;;;;;;8.43;3.60;;;;;;;;;;6324920;22;20066;-56
2022/04/25 07:58:22;;;;;;;11.55;4.38;;;;;;;;;;6325562;22;20011;-55
2022/04/25 08:00:48;;;;;;;15.45;4.45;;;;;;;;;;6325243;22;20625;-56
2022/04/25 08:03:14;;;;;;;7.82;3.90;;;;;;;;;;6324995;22;20014;-56
2022/04/25 08:05:39;;;;;;;10.43;3.92;;;;;;;;;;6324714;22;20019;-57
2022/04/25 08:08:04;;;;;;;18.42;5.07;;;;;;;;;;6322748;22;20593;-57
2022/04/25 08:10:30;;;;;;;11.05;4.07;;;;;;;;;;6317982;22;20111;-56
2022/04/25 08:18:22;;;;;;;10.00;4.47;;;;;;;;;;6325540;22;20713;-56
2022/04/25 08:20:48;;;;;;;14.10;4.53;;;;;;;;;;6328843;22;20003;-57
2022/04/25 08:23:13;;;;;;;10.30;4.75;;;;;;;;;;6326008;22;20738;-57
2022/04/25 08:25:39;;;;;;;11.70;3.97;;;;;;;;;;6330121;22;20026;-55
2022/04/25 08:28:05;;;;;;;12.90;3.38;;;;;;;;;;6328177;22;20014;-57
2022/04/25 08:30:30;;;;;;;5.72;3.58;;;;;;;;;;6329817;22;20038;-57
2022/04/25 08:32:56;;;;;;;21.58;4.65;;;;;;;;;;6328837;22;20007;-55
2022/04/25 08:35:21;;;;;;;9.02;4.60;;;;;;;;;;6327360;22;20015;-57
2022/04/25 08:37:47;;;;;;;11.05;3.78;;;;;;;;;;6324728;22;20222;-58
2022/04/25 08:40:13;;;;;;;8.65;3.83;;;;;;;;;;6330015;22;20014;-55
2022/04/25 08:42:38;;;;;;;12.55;4.97;;;;;;;;;;6326181;22;20341;-55
2022/04/25 08:45:07;;;;;;;12.60;4.78;;;;;;;;;;6329853;22;20021;-57
2022/04/25 08:47:34;;;;;;;15.57;4.30;;;;;;;;;;6327331;22;20035;-57
2022/04/25 08:50:00;;;;;;;12.73;5.25;;;;;;;;;;6296596;22;20023;-57
2022/04/25 08:52:26;;;;;;;7.57;3.92;;;;;;;;;;6296660;22;20033;-57
2022/04/25 08:54:51;;;;;;;13.75;3.95;;;;;;;;;;6298654;22;20019;-58
2022/04/25 08:57:17;;;;;;;11.30;3.97;;;;;;;;;;6295190;22;20003;-57
2022/04/25 08:59:43;;;;;;;14.50;3.92;;;;;;;;;;6298216;22;20060;-55
2022/04/25 09:02:09;;;;;;;12.90;4.10;;;;;;;;;;6295909;22;20011;-56
2022/04/25 09:04:35;;;;;;;9.23;3.53;;;;;;;;;;6297550;22;20066;-56
2022/04/25 09:07:00;;;;;;;11.57;3.90;;;;;;;;;;6295346;22;20581;-57
2022/04/25 09:09:25;;;;;;;10.63;4.40;;;;;;;;;;6297455;22;20061;-56
2022/04/25 09:12:09;;;;;;;6.25;2.63;;;;;;;;;;6296298;22;20022;-56
2022/04/25 09:14:35;;;;;;;9.05;3.78;;;;;;;;;;6298009;22;20011;-55
2022/04/25 09:17:03;;;;;;;8.07;3.50;;;;;;;;;;6296123;22;20407;-55
2022/04/25 09:19:28;;;;;;;13.50;3.80;;;;;;;;;;6297496;22;20021;-55
2022/04/25 09:21:54;;;;;;;7.97;3.70;;;;;;;;;;6296358;22;20027;-57
2022/04/25 09:24:22;;;;;;;16.45;3.85;;;;;;;;;;6297514;22;20019;-57
2022/04/25 09:26:49;;;;;;;7.22;3.28;;;;;;;;;;6297254;22;20080;-55
2022/04/25 09:29:16;;;;;;;8.50;4.80;;;;;;;;;;6296721;22;20007;-57
2022/04/25 09:31:50;;;;;;;5.93;3.45;;;;;;;;;;6297424;22;20126;-57
2022/04/25 09:34:16;;;;;;;11.90;4.40;;;;;;;;;;6294071;22;20011;-57
2022/04/25 09:36:48;;;;;;;11.68;4.80;;;;;;;;;;6296529;22;20030;-57
2022/04/25 09:39:26;;;;;;;10.32;3.67;;;;;;;;;;6296053;22;20202;-57
2022/04/25 09:41:51;;;;;;;9.50;3.13;;;;;;;;;;6299071;22;20026;-56
2022/04/25 09:44:16;;;;;;;6.57;3.58;;;;;;;;;;6295715;22;20015;-55
2022/04/25 09:46:48;;;;;;;9.68;3.15;;;;;;;;;;6298278;22;20072;-56
2022/04/25 09:49:18;;;;;;;8.50;3.10;;;;;;;;;;6295670;22;20011;-55
2022/04/25 09:52:00;;;;;;;11.57;3.78;;;;;;;;;;6295659;22;20023;-57
2022/04/25 09:54:26;;;;;;;9.52;3.65;;;;;;;;;;6297081;22;20085;-56
2022/04/25 09:56:51;;;;;;;6.93;3.25;;;;;;;;;;6296769;22;20604;-56
2022/04/25 09:59:16;;;;;;;7.32;3.33;;;;;;;;;;6295248;22;20239;-55
2022/04/25 10:01:43;;;;;;;13.05;3.80;;;;;;;;;;6297883;22;20007;-55
2022/04/25 10:04:30;;;;;;;14.82;4.15;;;;;;;;;;6294818;22;20016;-56
2022/04/25 10:06:55;;;;;;;6.45;3.03;;;;;;;;;;6295723;22;20027;-55
2022/04/25 10:09:22;;;;;;;9.13;2.90;;;;;;;;;;6289868;22;20035;-56
2022/04/25 10:11:48;;;;;;;12.68;3.15;;;;;;;;;;6294820;22;20011;-55
2022/04/25 10:14:13;;;;;;;9.18;3.10;;;;;;;;;;6296795;22;20039;-55
2022/04/25 10:16:39;;;;;;;11.60;3.25;;;;;;;;;;6296009;22;20975;-56
2022/04/25 10:19:05;;;;;;;12.63;3.47;;;;;;;;;;6298568;22;20019;-56
2022/04/25 10:21:31;;;;;;;7.13;3.10;;;;;;;;;;6292040;22;20003;-54
2022/04/25 10:23:57;;;;;;;8.85;3.47;;;;;;;;;;6298230;22;20042;-56
2022/04/25 10:26:26;;;;;;;10.25;3.17;;;;;;;;;;6295200;22;20024;-55
2022/04/25 10:28:54;;;;;;;8.75;3.13;;;;;;;;;;6298648;22;20075;-56
2022/04/25 10:31:27;;;;;;;7.18;4.47;;;;;;;;;;6295598;22;20369;-56
2022/04/25 10:33:54;;;;;;;10.45;2.83;;;;;;;;;;6291299;22;20038;-55
2022/04/25 10:36:38;;;;;;;7.22;3.65;;;;;;;;;;6291229;22;20011;-56
2022/04/25 10:39:11;;;;;;;9.43;3.22;;;;;;;;;;6297593;22;20086;-56
2022/04/25 10:44:20;;;;;;;9.43;2.90;;;;;;;;;;6292921;22;20299;-56
2022/04/25 10:47:03;;;;;;;8.43;3.22;;;;;;;;;;6297952;22;20613;-57
2022/04/25 10:49:36;;;;;;;6.22;3.15;;;;;;;;;;6295072;22;20019;-54
2022/04/25 10:52:03;;;;;;;13.10;3.05;;;;;;;;;;6297918;22;20019;-56
2022/04/25 10:54:45;;;;;;;10.25;3.08;;;;;;;;;;6294324;22;20019;-57
2022/04/25 10:57:11;;;;;;;5.72;3.03;;;;;;;;;;6296203;22;20048;-55
2022/04/25 10:59:39;;;;;;;6.53;3.58;;;;;;;;;;6297152;22;20027;-55
2022/04/25 11:02:21;;;;;;;4.60;2.85;;;;;;;;;;6295139;22;20015;-55
2022/04/25 11:04:46;;;;;;;8.82;3.03;;;;;;;;;;6296400;22;20035;-56
2022/04/25 11:07:23;;;;;;;9.98;3.03;;;;;;;;;;6295259;22;20027;-54
2022/04/25 11:09:48;;;;;;;8.23;3.10;;;;;;;;;;6296770;22;20027;-58
2022/04/25 11:12:14;;;;;;;5.85;2.90;;;;;;;;;;6292768;22;20011;-55
2022/04/25 11:14:56;;;;;;;6.63;3.05;;;;;;;;;;6297847;22;20010;-54
2022/04/25 11:17:21;;;;;;;8.27;3.33;;;;;;;;;;6295149;22;20012;-55
2022/04/25 11:19:54;;;;;;;8.07;2.72;;;;;;;;;;6296228;22;20022;-57
2022/04/25 11:22:31;;;;;;;12.80;3.80;;;;;;;;;;6297275;22;20022;-56
2022/04/25 11:25:13;;;;;;;6.20;2.75;;;;;;;;;;6296879;22;20234;-54
2022/04/25 11:27:58;;;;;;;9.00;2.80;;;;;;;;;;6296743;22;20046;-55
2022/04/25 11:30:25;;;;;;;11.68;3.45;;;;;;;;;;6297544;22;20015;-56
2022/04/25 11:32:50;;;;;;;10.52;4.03;;;;;;;;;;6296404;22;20004;-56
2022/04/25 11:35:22;;;;;;;10.25;3.28;;;;;;;;;;6299152;22;20012;-55
2022/04/25 11:37:48;;;;;;;11.10;3.75;;;;;;;;;;6297555;22;20011;-57
2022/04/25 11:40:14;;;;;;;6.72;2.58;;;;;;;;;;6298971;22;20013;-55
2022/04/25 11:42:40;;;;;;;5.38;2.75;;;;;;;;;;6290704;22;20003;-57
2022/04/25 11:45:06;;;;;;;5.43;2.90;;;;;;;;;;6294697;22;20019;-58
2022/04/25 11:47:31;;;;;;;8.80;3.55;;;;;;;;;;6291666;22;20027;-58
2022/04/25 11:50:04;;;;;;;7.38;3.47;;;;;;;;;;6300486;22;20027;-56
2022/04/25 11:52:30;;;;;;;7.47;3.35;;;;;;;;;;6322995;22;20049;-54
2022/04/25 11:54:55;;;;;;;4.75;2.33;;;;;;;;;;6326343;22;20015;-57
2022/04/25 11:57:21;;;;;;;7.90;2.75;;;;;;;;;;6322398;22;20017;-56
2022/04/25 11:59:46;;;;;;;6.50;2.88;;;;;;;;;;6326242;22;20046;-58
2022/04/25 12:02:12;;;;;;;9.38;2.83;;;;;;;;;;6325181;22;20011;-58
2022/04/25 12:04:38;;;;;;;11.38;2.85;;;;;;;;;;6325716;22;20026;-57
2022/04/25 12:07:12;;;;;;;14.48;3.35;;;;;;;;;;6325241;22;20015;-55
2022/04/25 12:18:20;;;;;;;10.95;3.13;;;;;;;;;;6253324;22;20011;-57
2022/04/25 12:20:59;;;;;;;3.40;2.72;;;;;;;;;;6327429;22;20007;-58
2022/04/25 12:23:25;;;;;;;7.95;2.60;;;;;;;;;;6326723;22;20509;-57
2022/04/25 12:25:51;;;;;;;6.03;2.53;;;;;;;;;;6325622;22;20042;-57
2022/04/25 12:28:17;;;;;;;4.57;2.45;;;;;;;;;;6325546;22;20022;-57
2022/04/25 12:30:46;;;;;;;8.27;2.92;;;;;;;;;;6328302;22;20007;-57
2022/04/25 12:33:13;;;;;;;13.95;2.75;;;;;;;;;;6327988;22;20007;-56
2022/04/25 12:35:38;;;;;;;7.70;2.53;;;;;;;;;;6327660;22;20421;-57
2022/04/25 12:38:04;;;;;;;4.30;2.60;;;;;;;;;;6328071;22;20022;-57
2022/04/25 12:40:30;;;;;;;10.05;2.65;;;;;;;;;;6325739;22;20017;-56
2022/04/25 12:42:56;;;;;;;7.72;3.90;;;;;;;;;;6328914;22;20068;-58
2022/04/25 12:45:22;;;;;;;4.90;2.95;;;;;;;;;;6325640;22;20014;-58
2022/04/25 12:47:57;;;;;;;7.25;2.90;;;;;;;;;;6301520;22;20102;-56
2022/04/25 12:50:42;;;;;;;9.10;2.97;;;;;;;;;;6325832;22;20030;-56
2022/04/25 12:53:07;;;;;;;8.50;2.55;;;;;;;;;;6327736;22;20031;-58
2022/04/25 12:55:43;;;;;;;12.23;3.42;;;;;;;;;;6325442;22;20060;-54
2022/04/25 12:58:08;;;;;;;6.38;3.55;;;;;;;;;;6328391;22;20015;-58
2022/04/25 13:00:41;;;;;;;6.10;2.28;;;;;;;;;;6328012;22;20280;-57
2022/04/25 13:03:06;;;;;;;7.10;2.65;;;;;;;;;;6328607;22;20075;-57
2022/04/25 13:05:31;;;;;;;5.68;2.83;;;;;;;;;;6326780;22;20015;-57
2022/04/25 13:07:57;;;;;;;11.77;2.95;;;;;;;;;;6329464;22;20019;-57
2022/04/25 13:10:23;;;;;;;14.10;3.22;;;;;;;;;;6327219;22;20027;-58
2022/04/25 13:12:52;;;;;;;9.30;3.05;;;;;;;;;;6329255;22;20015;-58
2022/04/25 13:15:19;;;;;;;3.88;3.00;;;;;;;;;;6326275;22;20011;-55
2022/04/25 13:17:45;;;;;;;9.10;2.78;;;;;;;;;;6301411;22;20021;-57
2022/04/25 13:20:14;;;;;;;5.20;2.88;;;;;;;;;;6299405;22;20015;-59
2022/04/25 13:22:39;;;;;;;6.97;2.70;;;;;;;;;;6328338;22;20015;-58
2022/04/25 13:25:06;;;;;;;6.97;2.80;;;;;;;;;;6328031;22;20011;-57
2022/04/25 13:27:31;;;;;;;7.05;3.22;;;;;;;;;;6327479;22;20023;-54
2022/04/25 13:29:56;;;;;;;9.35;3.20;;;;;;;;;;6328618;22;20017;-57
2022/04/25 13:32:22;;;;;;;9.77;3.40;;;;;;;;;;6327804;22;20022;-55
2022/04/25 13:34:47;;;;;;;6.13;3.30;;;;;;;;;;6328197;22;20013;-58
2022/04/25 13:37:13;;;;;;;8.02;3.30;;;;;;;;;;6326953;22;20015;-52
2022/04/25 13:39:38;;;;;;;4.50;3.55;;;;;;;;;;6326173;22;20049;-57
2022/04/25 13:42:03;;;;;;;7.65;3.30;;;;;;;;;;6326471;22;20011;-58
2022/04/25 13:44:29;;;;;;;8.25;3.08;;;;;;;;;;6326128;22;20015;-58
2022/04/25 13:46:54;;;;;;;7.18;2.60;;;;;;;;;;6324990;22;20022;-57
2022/04/25 13:49:22;;;;;;;8.23;2.83;;;;;;;;;;6325654;22;20058;-58
2022/04/25 13:51:47;;;;;;;9.15;2.70;;;;;;;;;;6322985;22;20038;-58
2022/04/25 13:54:12;;;;;;;6.28;2.72;;;;;;;;;;6324536;22;20018;-56
2022/04/25 13:56:38;;;;;;;3.95;2.38;;;;;;;;;;6326694;22;20019;-57
2022/04/25 13:59:04;;;;;;;4.35;2.33;;;;;;;;;;6327076;22;20030;-57
2022/04/25 14:01:30;;;;;;;9.77;2.80;;;;;;;;;;6327719;22;20071;-57
2022/04/25 14:03:55;;;;;;;4.65;2.78;;;;;;;;;;6326841;22;20018;-58
2022/04/25 14:06:20;;;;;;;6.57;2.95;;;;;;;;;;6328273;22;20210;-57
2022/04/25 14:08:46;;;;;;;7.03;3.30;;;;;;;;;;6326932;22;20010;-58
2022/04/25 14:11:11;;;;;;;6.50;2.80;;;;;;;;;;6328138;22;20014;-57
2022/04/25 14:13:36;;;;;;;5.75;2.40;;;;;;;;;;6325678;22;20013;-58
2022/04/25 14:16:02;;;;;;;9.05;2.88;;;;;;;;;;6328820;22;20019;-57
2022/04/25 14:18:29;;;;;;;6.88;2.35;;;;;;;;;;6318306;22;20011;-58
2022/04/25 14:20:54;;;;;;;6.30;2.70;;;;;;;;;;6328611;22;20085;-57
2022/04/25 14:23:19;;;;;;;3.20;2.55;;;;;;;;;;6322290;22;20672;-58
2022/04/25 14:25:45;;;;;;;10.07;2.90;;;;;;;;;;6328728;22;20019;-58
2022/04/25 14:28:10;;;;;;;9.05;2.50;;;;;;;;;;6326548;22;20015;-58
2022/04/25 14:30:35;;;;;;;8.35;2.90;;;;;;;;;;6328544;22;20013;-57
2022/04/25 14:33:01;;;;;;;5.47;2.40;;;;;;;;;;6299127;22;20015;-58
2022/04/25 14:35:26;;;;;;;5.78;2.92;;;;;;;;;;6328002;22;20014;-55
2022/04/25 14:37:51;;;;;;;5.68;2.83;;;;;;;;;;6299926;22;20014;-58
2022/04/25 14:40:17;;;;;;;4.90;3.30;;;;;;;;;;6328138;22;20007;-56
2022/04/25 14:42:43;;;;;;;6.07;2.70;;;;;;;;;;6326863;22;20015;-57
2022/04/25 14:45:09;;;;;;;5.60;2.30;;;;;;;;;;6328714;22;20030;-57
2022/04/25 14:47:34;;;;;;;3.67;2.55;;;;;;;;;;6323661;22;20067;-57
2022/04/25 14:55:28;;;;;;;5.32;2.38;;;;;;;;;;6325851;22;20022;-57
2022/04/25 14:57:53;;;;;;;4.28;2.35;;;;;;;;;;6325385;22;20015;-57
2022/04/25 15:00:19;;;;;;;4.53;1.70;;;;;;;;;;6319204;22;20022;-57
2022/04/25 15:02:45;;;;;;;6.50;1.80;;;;;;;;;;6321322;22;20015;-57
2022/04/25 15:05:10;;;;;;;4.47;1.98;;;;;;;;;;6324716;22;20014;-57
2022/04/25 15:07:35;;;;;;;8.25;1.92;;;;;;;;;;6326777;22;20060;-57
2022/04/25 15:10:01;;;;;;;4.28;2.30;;;;;;;;;;6299440;22;20036;-56
2022/04/25 15:12:26;;;;;;;6.85;2.13;;;;;;;;;;6329115;22;20010;-57
2022/04/25 15:14:51;;;;;;;4.00;2.58;;;;;;;;;;6327688;22;20029;-58